Time;durP1;ratioP1;P1;durP2;ratioP2;P2;SDS_P1;SDS_P2;PMS_P1;PMS_P2;Temp;Humidity;BMP_temperature;BMP_pressure;BME280_temperature;BME280_humidity;BME280_pressure;Samples;Min_cycle;Max_cycle;Signal;HPM_P1;HPM_P2
2022/08/02 00:01:45;;;;;;;0.10;0.10;;;;;;;;;;5054304;28;20269;-70
2022/08/02 00:04:12;;;;;;;0.45;0.45;;;;;;;;;;5065387;28;20207;-69
2022/08/02 00:06:39;;;;;;;0.00;0.00;;;;;;;;;;5053712;28;20485;-69
2022/08/02 00:09:05;;;;;;;0.00;0.00;;;;;;;;;;5065643;28;20275;-70
2022/08/02 00:11:32;;;;;;;0.00;0.00;;;;;;;;;;5054400;28;20577;-69
2022/08/02 00:13:58;;;;;;;0.00;0.00;;;;;;;;;;5065318;28;20270;-70
2022/08/02 00:16:25;;;;;;;0.00;0.00;;;;;;;;;;5054362;28;20250;-69
2022/08/02 00:18:51;;;;;;;0.00;0.00;;;;;;;;;;5065092;28;20239;-69
2022/08/02 00:21:19;;;;;;;0.00;0.00;;;;;;;;;;5054339;28;20254;-71
2022/08/02 00:23:45;;;;;;;0.00;0.00;;;;;;;;;;5064975;28;20357;-70
2022/08/02 00:26:12;;;;;;;0.00;0.00;;;;;;;;;;5054565;28;20256;-70
2022/08/02 00:28:38;;;;;;;0.00;0.00;;;;;;;;;;5064816;28;20358;-69
2022/08/02 00:31:04;;;;;;;0.00;0.00;;;;;;;;;;5054441;28;20395;-70
2022/08/02 00:33:31;;;;;;;0.00;0.00;;;;;;;;;;5064902;28;20261;-69
2022/08/02 00:35:57;;;;;;;0.00;0.00;;;;;;;;;;5054432;28;20306;-69
2022/08/02 00:38:25;;;;;;;0.00;0.00;;;;;;;;;;5064591;28;20383;-70
2022/08/02 00:40:53;;;;;;;0.10;0.10;;;;;;;;;;5054415;28;20323;-69
2022/08/02 00:43:19;;;;;;;0.00;0.00;;;;;;;;;;5064218;28;20385;-71
2022/08/02 00:45:45;;;;;;;0.00;0.00;;;;;;;;;;5054436;28;20302;-70
2022/08/02 00:48:12;;;;;;;0.00;0.00;;;;;;;;;;5063847;28;20289;-70
2022/08/02 00:50:39;;;;;;;0.00;0.00;;;;;;;;;;5054292;28;20426;-69
2022/08/02 00:53:09;;;;;;;0.00;0.00;;;;;;;;;;5063507;28;20222;-69
2022/08/02 00:55:38;;;;;;;0.10;0.10;;;;;;;;;;5054142;28;20321;-70
2022/08/02 00:58:04;;;;;;;0.00;0.00;;;;;;;;;;5063842;28;20401;-70
2022/08/02 01:00:31;;;;;;;0.03;0.03;;;;;;;;;;5053898;28;20251;-69
2022/08/02 01:02:57;;;;;;;0.00;0.00;;;;;;;;;;5063428;28;20274;-69
2022/08/02 01:05:23;;;;;;;0.00;0.00;;;;;;;;;;5054256;28;20278;-69
2022/08/02 01:07:50;;;;;;;0.00;0.00;;;;;;;;;;5063551;28;20453;-69
2022/08/02 01:10:16;;;;;;;0.00;0.00;;;;;;;;;;5053896;28;20210;-70
2022/08/02 01:12:46;;;;;;;0.00;0.00;;;;;;;;;;5063579;28;20193;-69
2022/08/02 01:15:13;;;;;;;0.00;0.00;;;;;;;;;;5054373;28;20250;-70
2022/08/02 01:17:43;;;;;;;0.00;0.00;;;;;;;;;;5063485;28;20243;-70
2022/08/02 01:20:14;;;;;;;0.00;0.00;;;;;;;;;;5053993;28;20468;-70
2022/08/02 01:22:56;;;;;;;0.00;0.00;;;;;;;;;;5062969;28;20214;-70
2022/08/02 01:25:28;;;;;;;0.00;0.00;;;;;;;;;;5053624;28;20433;-69
2022/08/02 01:28:20;;;;;;;0.03;0.03;;;;;;;;;;5063103;28;20213;-70
2022/08/02 01:30:47;;;;;;;0.00;0.00;;;;;;;;;;5053221;28;20247;-71
2022/08/02 01:33:16;;;;;;;0.00;0.00;;;;;;;;;;5063135;28;20203;-70
2022/08/02 01:35:45;;;;;;;0.00;0.00;;;;;;;;;;5053290;28;20353;-70
2022/08/02 01:38:14;;;;;;;0.00;0.00;;;;;;;;;;5063231;28;20204;-70
2022/08/02 01:40:41;;;;;;;0.05;0.05;;;;;;;;;;5053085;28;20470;-69
2022/08/02 01:43:09;;;;;;;0.08;0.08;;;;;;;;;;5063059;28;20235;-70
2022/08/02 01:45:39;;;;;;;0.00;0.00;;;;;;;;;;5053331;28;20243;-70
2022/08/02 01:48:06;;;;;;;0.00;0.00;;;;;;;;;;5062854;28;20449;-70
2022/08/02 01:50:34;;;;;;;0.00;0.00;;;;;;;;;;5053148;28;20257;-70
2022/08/02 01:53:02;;;;;;;0.00;0.00;;;;;;;;;;5062507;28;20206;-72
2022/08/02 01:55:31;;;;;;;0.00;0.00;;;;;;;;;;5053240;28;20434;-70
2022/08/02 01:57:58;;;;;;;0.00;0.00;;;;;;;;;;5062834;28;20203;-70
2022/08/02 02:00:26;;;;;;;0.00;0.00;;;;;;;;;;5052665;28;20650;-69
2022/08/02 02:02:55;;;;;;;0.00;0.00;;;;;;;;;;5062406;28;20275;-70
2022/08/02 02:05:23;;;;;;;0.10;0.10;;;;;;;;;;5053126;28;20243;-70
2022/08/02 02:07:50;;;;;;;0.00;0.00;;;;;;;;;;5062598;28;20262;-70
2022/08/02 02:10:17;;;;;;;0.00;0.00;;;;;;;;;;5052876;28;20268;-70
2022/08/02 02:12:46;;;;;;;0.00;0.00;;;;;;;;;;5062567;28;20318;-70
2022/08/02 02:15:13;;;;;;;0.00;0.00;;;;;;;;;;5053273;28;20415;-69
2022/08/02 02:17:43;;;;;;;0.00;0.00;;;;;;;;;;5061877;28;20203;-70
2022/08/02 02:20:12;;;;;;;0.00;0.00;;;;;;;;;;5053072;28;20530;-70
2022/08/02 02:22:39;;;;;;;0.00;0.00;;;;;;;;;;5061915;28;20206;-70
2022/08/02 02:25:06;;;;;;;0.00;0.00;;;;;;;;;;5059948;28;20275;-70
2022/08/02 02:27:32;;;;;;;0.10;0.10;;;;;;;;;;5061906;28;20445;-71
2022/08/02 02:29:59;;;;;;;0.00;0.00;;;;;;;;;;5063282;28;20349;-69
2022/08/02 02:32:27;;;;;;;0.10;0.10;;;;;;;;;;5051364;28;20301;-70
2022/08/02 02:34:55;;;;;;;0.10;0.10;;;;;;;;;;5063253;28;20303;-70
2022/08/02 02:37:24;;;;;;;0.10;0.10;;;;;;;;;;5051590;28;20318;-70
2022/08/02 02:39:51;;;;;;;0.00;0.00;;;;;;;;;;5062529;28;20231;-69
2022/08/02 02:42:19;;;;;;;0.10;0.10;;;;;;;;;;5051424;28;20243;-69
2022/08/02 02:44:46;;;;;;;0.00;0.00;;;;;;;;;;5063025;28;20385;-71
2022/08/02 02:47:14;;;;;;;0.10;0.10;;;;;;;;;;5051181;28;20238;-71
2022/08/02 02:49:42;;;;;;;0.00;0.00;;;;;;;;;;5062540;28;20530;-70
2022/08/02 02:52:10;;;;;;;0.00;0.00;;;;;;;;;;5051281;28;20313;-70
2022/08/02 02:54:38;;;;;;;0.00;0.00;;;;;;;;;;5062947;28;20204;-70
2022/08/02 02:57:05;;;;;;;0.00;0.00;;;;;;;;;;5051101;28;20245;-70
2022/08/02 02:59:32;;;;;;;0.00;0.00;;;;;;;;;;5062796;28;20211;-68
2022/08/02 03:01:59;;;;;;;0.00;0.00;;;;;;;;;;5051035;28;20247;-70
2022/08/02 03:04:26;;;;;;;0.00;0.00;;;;;;;;;;5062627;28;20207;-70
2022/08/02 03:06:53;;;;;;;0.00;0.00;;;;;;;;;;5050971;28;20438;-69
2022/08/02 03:09:19;;;;;;;0.00;0.00;;;;;;;;;;5062504;28;20212;-70
2022/08/02 03:11:47;;;;;;;0.00;0.00;;;;;;;;;;5050146;28;20537;-69
2022/08/02 03:14:14;;;;;;;0.00;0.00;;;;;;;;;;5062318;28;20281;-70
2022/08/02 03:16:44;;;;;;;0.00;0.00;;;;;;;;;;5050933;28;20250;-70
2022/08/02 03:19:10;;;;;;;0.00;0.00;;;;;;;;;;5062104;28;20259;-70
2022/08/02 03:21:36;;;;;;;0.00;0.00;;;;;;;;;;5050996;28;20589;-71
2022/08/02 03:24:03;;;;;;;0.00;0.00;;;;;;;;;;5062100;28;20227;-69
2022/08/02 03:26:29;;;;;;;0.00;0.00;;;;;;;;;;5051050;28;20242;-70
2022/08/02 03:28:57;;;;;;;0.10;0.10;;;;;;;;;;5062142;28;20212;-70
2022/08/02 03:31:23;;;;;;;0.00;0.00;;;;;;;;;;5051203;28;20242;-69
2022/08/02 03:33:50;;;;;;;0.00;0.00;;;;;;;;;;5061897;28;20283;-70
2022/08/02 03:36:19;;;;;;;0.00;0.00;;;;;;;;;;5051301;28;20269;-71
2022/08/02 03:38:45;;;;;;;0.00;0.00;;;;;;;;;;5061852;28;20207;-69
2022/08/02 03:41:13;;;;;;;0.00;0.00;;;;;;;;;;5051167;28;20246;-70
2022/08/02 03:43:40;;;;;;;0.00;0.00;;;;;;;;;;5061449;28;20562;-69
2022/08/02 03:46:08;;;;;;;0.05;0.05;;;;;;;;;;5051333;28;20340;-69
2022/08/02 03:48:35;;;;;;;0.00;0.00;;;;;;;;;;5061254;28;20219;-70
2022/08/02 03:51:01;;;;;;;0.10;0.10;;;;;;;;;;5050929;28;20321;-69
2022/08/02 03:53:28;;;;;;;0.00;0.00;;;;;;;;;;5061392;28;20409;-71
2022/08/02 03:55:55;;;;;;;0.10;0.10;;;;;;;;;;5051037;28;20439;-71
2022/08/02 03:58:22;;;;;;;0.00;0.00;;;;;;;;;;5061194;28;20401;-69
2022/08/02 04:00:48;;;;;;;0.00;0.00;;;;;;;;;;5050756;28;20306;-69
2022/08/02 04:03:16;;;;;;;0.00;0.00;;;;;;;;;;5060620;28;20278;-70
2022/08/02 04:05:42;;;;;;;0.00;0.00;;;;;;;;;;5050693;28;20261;-72
2022/08/02 04:08:09;;;;;;;0.00;0.00;;;;;;;;;;5060276;28;20238;-70
2022/08/02 04:11:29;;;;;;;0.00;0.00;;;;;;;;;;5050698;28;20240;-70
2022/08/02 04:13:32;;;;;;;0.00;0.00;;;;;;;;;;5060727;28;20207;-69
2022/08/02 04:16:03;;;;;;;0.00;0.00;;;;;;;;;;5051161;28;20250;-70
2022/08/02 04:18:34;;;;;;;0.00;0.00;;;;;;;;;;5061072;28;20208;-70
2022/08/02 04:21:02;;;;;;;2.25;2.20;;;;;;;;;;5050687;28;20243;-70
2022/08/02 04:23:29;;;;;;;0.00;0.00;;;;;;;;;;5063642;28;20242;-70
2022/08/02 04:25:56;;;;;;;0.00;0.00;;;;;;;;;;5054378;28;20310;-70
2022/08/02 04:28:24;;;;;;;0.00;0.00;;;;;;;;;;5064625;28;20443;-70
2022/08/02 04:30:50;;;;;;;0.10;0.10;;;;;;;;;;5054466;28;20255;-70
2022/08/02 04:33:17;;;;;;;0.00;0.00;;;;;;;;;;5064309;28;20275;-70
2022/08/02 04:35:45;;;;;;;0.00;0.00;;;;;;;;;;5054364;28;20250;-70
2022/08/02 04:38:12;;;;;;;0.08;0.08;;;;;;;;;;5064368;28;20268;-69
2022/08/02 04:40:39;;;;;;;0.00;0.00;;;;;;;;;;5054524;28;20290;-70
2022/08/02 04:43:05;;;;;;;0.00;0.00;;;;;;;;;;5064039;28;20195;-69
2022/08/02 04:45:32;;;;;;;0.00;0.00;;;;;;;;;;5054561;28;20440;-70
2022/08/02 04:47:58;;;;;;;0.00;0.00;;;;;;;;;;5063896;28;20194;-70
2022/08/02 04:50:24;;;;;;;0.00;0.00;;;;;;;;;;5054308;28;20262;-69
2022/08/02 04:52:52;;;;;;;0.00;0.00;;;;;;;;;;5063666;28;20469;-70
2022/08/02 04:55:18;;;;;;;0.00;0.00;;;;;;;;;;5054270;28;20202;-70
2022/08/02 04:57:57;;;;;;;0.00;0.00;;;;;;;;;;5063849;28;20196;-70
2022/08/02 05:00:23;;;;;;;0.05;0.05;;;;;;;;;;5054168;28;20212;-69
2022/08/02 05:02:51;;;;;;;0.00;0.00;;;;;;;;;;5063948;28;20264;-70
2022/08/02 05:05:17;;;;;;;0.00;0.00;;;;;;;;;;5053923;28;20212;-70
2022/08/02 05:07:44;;;;;;;0.05;0.05;;;;;;;;;;5063715;28;20199;-69
2022/08/02 05:10:11;;;;;;;0.00;0.00;;;;;;;;;;5054530;28;20473;-69
2022/08/02 05:12:38;;;;;;;0.00;0.00;;;;;;;;;;5063351;28;20219;-71
2022/08/02 05:15:05;;;;;;;0.10;0.10;;;;;;;;;;5063643;28;20418;-70
2022/08/02 05:17:31;;;;;;;0.00;0.00;;;;;;;;;;5061796;28;20411;-70
2022/08/02 05:19:57;;;;;;;0.00;0.00;;;;;;;;;;5064383;28;20609;-69
2022/08/02 05:22:23;;;;;;;0.00;0.00;;;;;;;;;;5052629;28;20492;-70
2022/08/02 05:24:50;;;;;;;0.10;0.10;;;;;;;;;;5064361;28;20204;-70
2022/08/02 05:27:18;;;;;;;0.00;0.00;;;;;;;;;;5052471;28;20268;-69
2022/08/02 05:29:44;;;;;;;0.00;0.00;;;;;;;;;;5064349;28;20277;-69
2022/08/02 05:32:10;;;;;;;0.00;0.00;;;;;;;;;;5052299;28;20304;-69
2022/08/02 05:34:37;;;;;;;0.00;0.00;;;;;;;;;;5063292;28;20279;-69
2022/08/02 05:37:03;;;;;;;0.00;0.00;;;;;;;;;;5052534;28;20406;-71
2022/08/02 05:39:29;;;;;;;0.00;0.00;;;;;;;;;;5064216;28;20245;-68
2022/08/02 05:41:56;;;;;;;0.00;0.00;;;;;;;;;;5052254;28;20313;-69
2022/08/02 05:44:25;;;;;;;0.00;0.00;;;;;;;;;;5063804;28;20274;-70
2022/08/02 05:46:51;;;;;;;0.10;0.10;;;;;;;;;;5052306;28;20448;-69
2022/08/02 05:49:17;;;;;;;0.10;0.10;;;;;;;;;;5063421;28;20422;-69
2022/08/02 05:51:52;;;;;;;0.03;0.03;;;;;;;;;;5052403;28;20310;-69
2022/08/02 05:54:19;;;;;;;0.00;0.00;;;;;;;;;;5063729;28;20301;-69
2022/08/02 05:56:47;;;;;;;0.10;0.10;;;;;;;;;;5052039;28;20256;-71
2022/08/02 05:59:17;;;;;;;0.00;0.00;;;;;;;;;;5063605;28;20195;-69
2022/08/02 06:01:48;;;;;;;0.00;0.00;;;;;;;;;;5052189;28;20294;-69
2022/08/02 06:04:17;;;;;;;0.00;0.00;;;;;;;;;;5063086;28;20234;-69
2022/08/02 06:06:44;;;;;;;0.00;0.00;;;;;;;;;;5051934;28;20241;-69
2022/08/02 06:09:15;;;;;;;0.00;0.00;;;;;;;;;;5063000;28;20208;-70
2022/08/02 06:11:43;;;;;;;0.10;0.10;;;;;;;;;;5051939;28;20253;-69
2022/08/02 06:14:11;;;;;;;0.03;0.03;;;;;;;;;;5063140;28;20532;-70
2022/08/02 06:16:38;;;;;;;0.00;0.00;;;;;;;;;;5051868;28;20299;-69
2022/08/02 06:19:06;;;;;;;0.10;0.10;;;;;;;;;;5062593;28;20306;-69
2022/08/02 06:21:33;;;;;;;0.00;0.00;;;;;;;;;;5051727;28;20268;-70
2022/08/02 06:24:00;;;;;;;0.00;0.00;;;;;;;;;;5062868;28;20273;-70
2022/08/02 06:26:26;;;;;;;0.00;0.00;;;;;;;;;;5051898;28;20308;-67
2022/08/02 06:28:53;;;;;;;0.00;0.00;;;;;;;;;;5062390;28;20258;-66
2022/08/02 06:31:20;;;;;;;0.00;0.00;;;;;;;;;;5051583;28;20237;-66
2022/08/02 06:33:46;;;;;;;0.00;0.00;;;;;;;;;;5062501;28;20506;-69
2022/08/02 06:36:19;;;;;;;0.00;0.00;;;;;;;;;;5051762;28;20248;-67
2022/08/02 06:38:50;;;;;;;0.00;0.00;;;;;;;;;;5062520;28;20211;-66
2022/08/02 06:41:17;;;;;;;0.00;0.00;;;;;;;;;;5051580;28;20270;-66
2022/08/02 06:43:46;;;;;;;0.00;0.00;;;;;;;;;;5062285;28;20289;-67
2022/08/02 06:46:13;;;;;;;0.03;0.03;;;;;;;;;;5051246;28;20307;-67
2022/08/02 06:48:39;;;;;;;0.00;0.00;;;;;;;;;;5061928;28;20270;-66
2022/08/02 06:51:06;;;;;;;0.00;0.00;;;;;;;;;;5051840;28;20486;-66
2022/08/02 06:53:33;;;;;;;0.00;0.00;;;;;;;;;;5062137;28;20568;-67
2022/08/02 06:56:00;;;;;;;0.00;0.00;;;;;;;;;;5051532;28;20277;-68
2022/08/02 06:58:26;;;;;;;0.00;0.00;;;;;;;;;;5061937;28;20268;-67
2022/08/02 07:00:53;;;;;;;0.00;0.00;;;;;;;;;;5051519;28;20394;-66
2022/08/02 07:03:19;;;;;;;0.10;0.10;;;;;;;;;;5061579;28;20295;-66
2022/08/02 07:05:47;;;;;;;0.00;0.00;;;;;;;;;;5051519;28;20579;-66
2022/08/02 07:08:14;;;;;;;0.00;0.00;;;;;;;;;;5061733;28;20258;-66
2022/08/02 07:10:42;;;;;;;0.00;0.00;;;;;;;;;;5051524;28;20307;-67
2022/08/02 07:13:08;;;;;;;0.10;0.10;;;;;;;;;;5061946;28;20238;-67
2022/08/02 07:15:34;;;;;;;0.05;0.05;;;;;;;;;;5051881;28;20239;-66
2022/08/02 07:18:01;;;;;;;0.00;0.00;;;;;;;;;;5061675;28;20231;-68
2022/08/02 07:20:27;;;;;;;0.00;0.00;;;;;;;;;;5052259;28;20321;-67
2022/08/02 07:22:54;;;;;;;0.00;0.00;;;;;;;;;;5061505;28;20238;-66
2022/08/02 07:25:20;;;;;;;0.10;0.10;;;;;;;;;;5051812;28;20207;-67
2022/08/02 07:27:48;;;;;;;0.00;0.00;;;;;;;;;;5061323;28;20200;-68
2022/08/02 07:30:15;;;;;;;0.00;0.00;;;;;;;;;;5051750;28;20217;-67
2022/08/02 07:32:41;;;;;;;0.05;0.05;;;;;;;;;;5061527;28;20383;-66
2022/08/02 07:35:08;;;;;;;0.00;0.00;;;;;;;;;;5051756;28;20282;-66
2022/08/02 07:37:35;;;;;;;0.00;0.00;;;;;;;;;;5061384;28;20537;-66
2022/08/02 07:40:01;;;;;;;0.00;0.00;;;;;;;;;;5062637;28;20452;-68
2022/08/02 07:42:28;;;;;;;0.00;0.00;;;;;;;;;;5050853;28;20634;-67
2022/08/02 07:44:56;;;;;;;0.00;0.00;;;;;;;;;;5062072;28;20279;-67
2022/08/02 07:47:22;;;;;;;0.00;0.00;;;;;;;;;;5050777;28;20244;-68
2022/08/02 07:49:50;;;;;;;0.00;0.00;;;;;;;;;;5061738;28;20215;-68
2022/08/02 07:52:16;;;;;;;0.10;0.10;;;;;;;;;;5050687;28;20307;-68
2022/08/02 07:54:42;;;;;;;0.00;0.00;;;;;;;;;;5061964;28;20206;-67
2022/08/02 07:57:09;;;;;;;0.00;0.00;;;;;;;;;;5051207;28;20259;-68
2022/08/02 07:59:35;;;;;;;0.00;0.00;;;;;;;;;;5066037;28;20210;-67
2022/08/02 08:02:03;;;;;;;0.00;0.00;;;;;;;;;;5054256;28;20271;-68
2022/08/02 08:04:29;;;;;;;0.10;0.10;;;;;;;;;;5065928;28;20274;-68
2022/08/02 08:06:56;;;;;;;0.00;0.00;;;;;;;;;;5054310;28;20274;-67
2022/08/02 08:09:22;;;;;;;0.00;0.00;;;;;;;;;;5066045;28;20445;-66
2022/08/02 08:11:49;;;;;;;0.00;0.00;;;;;;;;;;5054087;28;20236;-65
2022/08/02 08:14:15;;;;;;;0.00;0.00;;;;;;;;;;5057127;28;20239;-66
2022/08/02 08:16:42;;;;;;;0.00;0.00;;;;;;;;;;5053765;28;20282;-66
2022/08/02 08:19:10;;;;;;;0.00;0.00;;;;;;;;;;5065414;28;20543;-67
2022/08/02 08:21:36;;;;;;;0.00;0.00;;;;;;;;;;5054289;28;20612;-67
2022/08/02 08:24:03;;;;;;;0.00;0.00;;;;;;;;;;5065382;28;20249;-67
2022/08/02 08:26:30;;;;;;;0.00;0.00;;;;;;;;;;5054371;28;20341;-67
2022/08/02 08:28:56;;;;;;;0.00;0.00;;;;;;;;;;5064845;28;20282;-66
2022/08/02 08:31:22;;;;;;;0.00;0.00;;;;;;;;;;5054082;28;20302;-68
2022/08/02 08:33:49;;;;;;;0.00;0.00;;;;;;;;;;5064852;28;20196;-68
2022/08/02 08:36:17;;;;;;;0.00;0.00;;;;;;;;;;5054346;28;20243;-68
2022/08/02 08:38:43;;;;;;;0.03;0.03;;;;;;;;;;5065070;28;20204;-67
2022/08/02 08:41:10;;;;;;;0.00;0.00;;;;;;;;;;5053892;28;20251;-67
2022/08/02 08:43:36;;;;;;;0.00;0.00;;;;;;;;;;5064585;28;20274;-67
2022/08/02 08:46:03;;;;;;;0.00;0.00;;;;;;;;;;5054195;28;20523;-66
2022/08/02 08:48:31;;;;;;;0.00;0.00;;;;;;;;;;5064597;28;20219;-67
2022/08/02 08:51:01;;;;;;;0.00;0.00;;;;;;;;;;5054239;28;20422;-67
2022/08/02 08:53:30;;;;;;;0.00;0.00;;;;;;;;;;5064427;28;20200;-68
2022/08/02 08:55:57;;;;;;;0.00;0.00;;;;;;;;;;5054287;28;20240;-67
2022/08/02 08:58:23;;;;;;;0.00;0.00;;;;;;;;;;5064358;28;20228;-66
2022/08/02 09:00:50;;;;;;;0.10;0.10;;;;;;;;;;5054041;28;20259;-68
2022/08/02 09:03:16;;;;;;;0.00;0.00;;;;;;;;;;5064270;28;20299;-67
2022/08/02 09:05:45;;;;;;;0.00;0.00;;;;;;;;;;5054332;28;20548;-68
2022/08/02 09:08:12;;;;;;;0.00;0.00;;;;;;;;;;5063417;28;20225;-67
2022/08/02 09:10:40;;;;;;;0.00;0.00;;;;;;;;;;5053159;28;20244;-67
2022/08/02 09:13:11;;;;;;;0.00;0.00;;;;;;;;;;5063991;28;20232;-67
2022/08/02 09:15:38;;;;;;;0.00;0.00;;;;;;;;;;5053883;28;20239;-67
2022/08/02 09:18:05;;;;;;;0.00;0.00;;;;;;;;;;5063873;28;20199;-67
2022/08/02 09:20:32;;;;;;;0.00;0.00;;;;;;;;;;5053998;28;20239;-67
2022/08/02 09:23:06;;;;;;;0.00;0.00;;;;;;;;;;5063745;28;20465;-68
2022/08/02 09:25:32;;;;;;;0.00;0.00;;;;;;;;;;5053768;28;20548;-67
2022/08/02 09:28:00;;;;;;;0.00;0.00;;;;;;;;;;5063311;28;20239;-67
2022/08/02 09:30:27;;;;;;;0.10;0.10;;;;;;;;;;5053837;28;20302;-67
2022/08/02 09:32:53;;;;;;;0.00;0.00;;;;;;;;;;5063568;28;20552;-69
2022/08/02 09:35:33;;;;;;;0.00;0.00;;;;;;;;;;5053728;28;20203;-67
2022/08/02 09:38:08;;;;;;;0.00;0.00;;;;;;;;;;5063259;28;20204;-66
2022/08/02 09:40:35;;;;;;;0.00;0.00;;;;;;;;;;5053618;28;20239;-66
2022/08/02 09:43:02;;;;;;;0.00;0.00;;;;;;;;;;5063476;28;20246;-66
2022/08/02 09:45:30;;;;;;;0.00;0.00;;;;;;;;;;5053741;28;20244;-66
2022/08/02 09:47:56;;;;;;;0.00;0.00;;;;;;;;;;5062977;28;20503;-68
2022/08/02 09:50:23;;;;;;;0.00;0.00;;;;;;;;;;5053588;28;20270;-66
2022/08/02 09:52:49;;;;;;;0.00;0.00;;;;;;;;;;5063293;28;20211;-67
2022/08/02 09:55:16;;;;;;;0.00;0.00;;;;;;;;;;5053677;28;20275;-66
2022/08/02 09:57:42;;;;;;;0.00;0.00;;;;;;;;;;5063083;28;20380;-67
2022/08/02 10:00:11;;;;;;;0.00;0.00;;;;;;;;;;5053676;28;20211;-67
2022/08/02 10:02:37;;;;;;;0.00;0.00;;;;;;;;;;5062852;28;20279;-66
2022/08/02 10:05:04;;;;;;;0.00;0.00;;;;;;;;;;5063964;28;20210;-67
2022/08/02 10:07:30;;;;;;;0.00;0.00;;;;;;;;;;5035493;28;20291;-67
2022/08/02 10:09:57;;;;;;;0.00;0.00;;;;;;;;;;5063772;28;20212;-67
2022/08/02 10:12:24;;;;;;;0.00;0.00;;;;;;;;;;5052105;28;20232;-68
2022/08/02 10:14:51;;;;;;;0.00;0.00;;;;;;;;;;5063402;28;20230;-68
2022/08/02 10:17:19;;;;;;;0.00;0.00;;;;;;;;;;5051991;28;20578;-66
2022/08/02 10:19:47;;;;;;;0.00;0.00;;;;;;;;;;5063269;28;20228;-67
2022/08/02 10:22:14;;;;;;;0.10;0.10;;;;;;;;;;5051935;28;20304;-68
2022/08/02 10:24:43;;;;;;;0.00;0.00;;;;;;;;;;5063825;28;20204;-67
2022/08/02 10:27:15;;;;;;;0.00;0.00;;;;;;;;;;5051864;28;20245;-68
2022/08/02 10:29:42;;;;;;;0.00;0.00;;;;;;;;;;5063391;28;20192;-67
2022/08/02 10:32:10;;;;;;;0.00;0.00;;;;;;;;;;5051909;28;20470;-69
2022/08/02 10:34:41;;;;;;;0.00;0.00;;;;;;;;;;5063387;28;20270;-66
2022/08/02 10:37:08;;;;;;;0.00;0.00;;;;;;;;;;5052127;28;20239;-66
2022/08/02 10:39:38;;;;;;;0.00;0.00;;;;;;;;;;5063314;28;20371;-66
2022/08/02 10:42:05;;;;;;;0.00;0.00;;;;;;;;;;5051573;28;20609;-67
2022/08/02 10:44:32;;;;;;;0.10;0.10;;;;;;;;;;5062873;28;20204;-67
2022/08/02 10:47:17;;;;;;;0.00;0.00;;;;;;;;;;5051554;28;20492;-67
2022/08/02 10:49:49;;;;;;;0.00;0.00;;;;;;;;;;5062791;28;20212;-67
2022/08/02 10:52:16;;;;;;;0.00;0.00;;;;;;;;;;5051526;28;20235;-67
2022/08/02 10:54:43;;;;;;;0.10;0.10;;;;;;;;;;5063129;28;20300;-68
2022/08/02 10:57:17;;;;;;;0.00;0.00;;;;;;;;;;5051568;28;20253;-66
2022/08/02 10:59:44;;;;;;;0.00;0.00;;;;;;;;;;5062919;28;20348;-66
2022/08/02 11:02:11;;;;;;;0.00;0.00;;;;;;;;;;5051384;28;20252;-68
2022/08/02 11:04:56;;;;;;;0.00;0.00;;;;;;;;;;5062554;28;20204;-67
2022/08/02 11:07:33;;;;;;;0.00;0.00;;;;;;;;;;5051152;28;20500;-67
2022/08/02 11:09:59;;;;;;;0.00;0.00;;;;;;;;;;5062866;28;20191;-67
2022/08/02 11:12:26;;;;;;;0.00;0.00;;;;;;;;;;5051112;28;20248;-66
2022/08/02 11:14:58;;;;;;;0.00;0.00;;;;;;;;;;5062373;28;20204;-67
2022/08/02 11:17:27;;;;;;;0.00;0.00;;;;;;;;;;5051213;28;20247;-66
2022/08/02 11:20:12;;;;;;;0.00;0.00;;;;;;;;;;5062053;28;20223;-66
2022/08/02 11:22:41;;;;;;;0.00;0.00;;;;;;;;;;5057272;28;20247;-68
2022/08/02 11:25:22;;;;;;;0.00;0.00;;;;;;;;;;5051806;28;20211;-66
2022/08/02 11:27:48;;;;;;;0.00;0.00;;;;;;;;;;5025466;28;20211;-66
2022/08/02 11:30:15;;;;;;;0.00;0.00;;;;;;;;;;5033437;28;20296;-66
2022/08/02 11:32:42;;;;;;;0.00;0.00;;;;;;;;;;5062862;28;20216;-67
2022/08/02 11:35:08;;;;;;;0.00;0.00;;;;;;;;;;5055869;28;20239;-68
2022/08/02 11:37:36;;;;;;;0.00;0.00;;;;;;;;;;5045224;28;20193;-68
2022/08/02 11:40:04;;;;;;;0.00;0.00;;;;;;;;;;5046292;28;20204;-68
2022/08/02 11:42:31;;;;;;;0.00;0.00;;;;;;;;;;5054859;28;20236;-67
2022/08/02 11:44:58;;;;;;;0.00;0.00;;;;;;;;;;5066364;28;20204;-66
2022/08/02 11:47:24;;;;;;;0.00;0.00;;;;;;;;;;5035776;28;20240;-67
2022/08/02 11:49:50;;;;;;;0.00;0.00;;;;;;;;;;5045944;28;20213;-69
2022/08/02 11:52:17;;;;;;;0.00;0.00;;;;;;;;;;5053010;28;20246;-66
2022/08/02 11:54:44;;;;;;;0.00;0.00;;;;;;;;;;5065988;28;20274;-67
2022/08/02 11:57:15;;;;;;;0.00;0.00;;;;;;;;;;5036862;28;20302;-65
2022/08/02 11:59:43;;;;;;;0.00;0.00;;;;;;;;;;5046094;28;20247;-67
2022/08/02 12:02:10;;;;;;;0.00;0.00;;;;;;;;;;5051415;28;20289;-67
2022/08/02 12:04:36;;;;;;;0.00;0.00;;;;;;;;;;5065787;28;20396;-66
2022/08/02 12:07:03;;;;;;;0.00;0.00;;;;;;;;;;5038111;28;20247;-68
2022/08/02 12:09:31;;;;;;;0.00;0.00;;;;;;;;;;5045891;28;20405;-67
2022/08/02 12:11:58;;;;;;;0.00;0.00;;;;;;;;;;5049963;28;20255;-68
2022/08/02 12:14:27;;;;;;;0.00;0.00;;;;;;;;;;5065422;28;20214;-67
2022/08/02 12:19:38;;;;;;;0.00;0.00;;;;;;;;;;5045554;28;20271;-67
2022/08/02 12:22:12;;;;;;;0.03;0.03;;;;;;;;;;5050872;28;20259;-67
2022/08/02 12:24:40;;;;;;;0.00;0.00;;;;;;;;;;5065446;28;20210;-67
2022/08/02 12:27:07;;;;;;;0.00;0.00;;;;;;;;;;5037277;28;20312;-67
2022/08/02 12:29:35;;;;;;;0.00;0.00;;;;;;;;;;5045550;28;20204;-68
2022/08/02 12:32:02;;;;;;;0.00;0.00;;;;;;;;;;5050286;28;20515;-67
2022/08/02 12:34:29;;;;;;;0.00;0.00;;;;;;;;;;5065365;28;20200;-66
2022/08/02 12:37:03;;;;;;;0.00;0.00;;;;;;;;;;5039113;28;20241;-67
2022/08/02 12:39:33;;;;;;;0.00;0.00;;;;;;;;;;5045452;28;20303;-66
2022/08/02 12:42:00;;;;;;;0.00;0.00;;;;;;;;;;5049626;28;20312;-67
2022/08/02 12:44:26;;;;;;;0.00;0.00;;;;;;;;;;5064692;28;20228;-66
2022/08/02 12:47:00;;;;;;;0.00;0.00;;;;;;;;;;5038969;28;20312;-66
2022/08/02 12:49:26;;;;;;;0.00;0.00;;;;;;;;;;5045002;28;20273;-66
2022/08/02 12:51:53;;;;;;;0.00;0.00;;;;;;;;;;5048978;28;20257;-66
2022/08/02 12:54:20;;;;;;;0.00;0.00;;;;;;;;;;5064908;28;20200;-67
2022/08/02 12:56:47;;;;;;;0.00;0.00;;;;;;;;;;5039639;28;20264;-66
2022/08/02 12:59:14;;;;;;;0.00;0.00;;;;;;;;;;5044632;28;20197;-66
2022/08/02 13:01:40;;;;;;;0.00;0.00;;;;;;;;;;5046870;28;20239;-65
2022/08/02 13:04:08;;;;;;;0.00;0.00;;;;;;;;;;5064589;28;20588;-66
2022/08/02 13:06:35;;;;;;;0.00;0.00;;;;;;;;;;5041126;28;20247;-66
2022/08/02 13:09:02;;;;;;;0.00;0.00;;;;;;;;;;5044628;28;20275;-67
2022/08/02 13:11:28;;;;;;;0.00;0.00;;;;;;;;;;5045167;28;20274;-67
2022/08/02 13:13:55;;;;;;;0.00;0.00;;;;;;;;;;5064521;28;20200;-67
2022/08/02 13:16:23;;;;;;;0.00;0.00;;;;;;;;;;5042987;28;20254;-67
2022/08/02 13:18:49;;;;;;;0.00;0.00;;;;;;;;;;5044007;28;20423;-68
2022/08/02 13:21:17;;;;;;;0.00;0.00;;;;;;;;;;5043394;28;20303;-69
2022/08/02 13:23:43;;;;;;;0.00;0.00;;;;;;;;;;5064368;28;20224;-71
2022/08/02 13:26:10;;;;;;;0.00;0.00;;;;;;;;;;5044325;28;20277;-69
2022/08/02 13:28:40;;;;;;;0.00;0.00;;;;;;;;;;5044451;28;20535;-69
2022/08/02 13:31:07;;;;;;;0.00;0.00;;;;;;;;;;5042215;28;20248;-70
2022/08/02 13:33:33;;;;;;;0.00;0.00;;;;;;;;;;5063798;28;20202;-68
2022/08/02 13:36:00;;;;;;;0.00;0.00;;;;;;;;;;5045820;28;20290;-69
2022/08/02 13:38:27;;;;;;;0.00;0.00;;;;;;;;;;5044070;28;20209;-68
2022/08/02 13:41:09;;;;;;;0.00;0.00;;;;;;;;;;5040615;28;20346;-69
2022/08/02 13:43:36;;;;;;;0.00;0.00;;;;;;;;;;5063677;28;20215;-69
2022/08/02 13:46:03;;;;;;;0.00;0.00;;;;;;;;;;5045497;28;20463;-69
2022/08/02 13:48:29;;;;;;;0.00;0.00;;;;;;;;;;5043418;28;20279;-68
2022/08/02 13:50:56;;;;;;;0.00;0.00;;;;;;;;;;5040406;28;20248;-69
2022/08/02 13:53:22;;;;;;;0.00;0.00;;;;;;;;;;5063169;28;20242;-69
2022/08/02 13:55:50;;;;;;;0.00;0.00;;;;;;;;;;5046498;28;20345;-68
2022/08/02 13:58:17;;;;;;;0.00;0.00;;;;;;;;;;5043360;28;20272;-68
2022/08/02 14:00:43;;;;;;;0.00;0.00;;;;;;;;;;5038380;28;20239;-69
2022/08/02 14:03:09;;;;;;;0.00;0.00;;;;;;;;;;5062881;28;20231;-68
2022/08/02 14:05:37;;;;;;;0.00;0.00;;;;;;;;;;5049067;28;20505;-68
2022/08/02 14:08:03;;;;;;;0.00;0.00;;;;;;;;;;5043154;28;20221;-69
2022/08/02 14:10:30;;;;;;;0.10;0.10;;;;;;;;;;5036436;28;20247;-68
2022/08/02 14:12:57;;;;;;;0.00;0.00;;;;;;;;;;5062985;28;20192;-68
2022/08/02 14:15:24;;;;;;;0.00;0.00;;;;;;;;;;5050464;28;20382;-68
2022/08/02 14:17:50;;;;;;;0.00;0.00;;;;;;;;;;5042585;28;20243;-67
2022/08/02 14:20:17;;;;;;;0.00;0.00;;;;;;;;;;5034686;28;20232;-67
2022/08/02 14:22:43;;;;;;;0.00;0.00;;;;;;;;;;5062313;28;20192;-68
2022/08/02 14:25:10;;;;;;;0.00;0.00;;;;;;;;;;5052553;28;20240;-67
2022/08/02 14:27:36;;;;;;;0.00;0.00;;;;;;;;;;5042180;28;20200;-68
2022/08/02 14:30:04;;;;;;;0.00;0.00;;;;;;;;;;5043563;28;20451;-67
2022/08/02 14:32:31;;;;;;;0.00;0.00;;;;;;;;;;5051664;28;20390;-67
2022/08/02 14:34:57;;;;;;;0.00;0.00;;;;;;;;;;5063292;28;20200;-68
2022/08/02 14:37:23;;;;;;;0.00;0.00;;;;;;;;;;5032629;28;20271;-68
2022/08/02 14:39:50;;;;;;;0.00;0.00;;;;;;;;;;5042963;28;20212;-67
2022/08/02 14:42:16;;;;;;;0.00;0.00;;;;;;;;;;5049636;28;20250;-68
2022/08/02 14:44:42;;;;;;;0.00;0.00;;;;;;;;;;5063024;28;20250;-67
2022/08/02 14:47:10;;;;;;;0.00;0.00;;;;;;;;;;5034399;28;20304;-68
2022/08/02 14:49:37;;;;;;;0.00;0.00;;;;;;;;;;5042866;28;20414;-69